createdAt,value
2023-05-03T00:00:46.255Z,0
2023-05-03T00:02:02.398Z,0
2023-05-03T00:03:18.534Z,0
2023-05-03T00:04:34.693Z,0
2023-05-03T00:05:50.822Z,0
2023-05-03T00:07:06.980Z,0
2023-05-03T00:08:23.145Z,0
2023-05-03T00:09:39.290Z,0
2023-05-03T00:10:55.427Z,0
2023-05-03T00:12:10.584Z,0
2023-05-03T00:13:26.733Z,0
2023-05-03T00:14:42.886Z,0
2023-05-03T00:15:59.000Z,0
2023-05-03T00:17:15.171Z,0
2023-05-03T00:18:31.321Z,0
2023-05-03T00:19:47.478Z,0
2023-05-03T00:21:03.629Z,0
2023-05-03T00:22:19.773Z,0
2023-05-03T00:23:35.917Z,0
2023-05-03T00:24:52.044Z,0
2023-05-03T00:26:08.182Z,0
2023-05-03T00:27:24.340Z,0
2023-05-03T00:28:39.492Z,0
2023-05-03T00:29:55.640Z,0
2023-05-03T00:31:11.778Z,0
2023-05-03T00:32:27.931Z,0
2023-05-03T00:33:44.071Z,0
2023-05-03T00:35:00.234Z,0
2023-05-03T00:36:16.379Z,0
2023-05-03T00:37:32.512Z,0
2023-05-03T00:38:48.682Z,0
2023-05-03T00:40:04.818Z,0
2023-05-03T00:41:20.977Z,0
2023-05-03T00:42:37.126Z,0
2023-05-03T00:43:53.272Z,0
2023-05-03T00:45:08.447Z,0
2023-05-03T00:47:40.740Z,0
2023-05-03T00:48:56.899Z,0
2023-05-03T00:50:13.045Z,0
2023-05-03T00:51:29.187Z,0
2023-05-03T00:52:45.323Z,0
2023-05-03T00:54:01.468Z,0
2023-05-03T00:55:17.623Z,0
2023-05-03T00:56:33.770Z,0
2023-05-03T00:57:49.908Z,0
2023-05-03T00:59:06.062Z,0
2023-05-03T01:00:22.234Z,0
2023-05-03T01:01:37.391Z,0
2023-05-03T01:02:53.533Z,0
2023-05-03T01:04:09.691Z,0
2023-05-03T01:05:25.849Z,0
2023-05-03T01:06:41.996Z,0
2023-05-03T01:07:58.144Z,0
2023-05-03T01:09:14.273Z,0
2023-05-03T01:10:30.431Z,0
2023-05-03T01:11:46.576Z,0
2023-05-03T01:13:02.732Z,0
2023-05-03T01:14:18.884Z,0
2023-05-03T01:15:35.035Z,0
2023-05-03T01:16:51.193Z,0
2023-05-03T01:18:06.363Z,0
2023-05-03T01:19:22.517Z,0
2023-05-03T01:20:38.678Z,0
2023-05-03T01:21:54.820Z,0
2023-05-03T01:23:10.963Z,0
2023-05-03T01:24:27.123Z,0
2023-05-03T01:25:43.261Z,0
2023-05-03T01:26:59.424Z,0
2023-05-03T01:28:15.563Z,0
2023-05-03T01:29:31.705Z,0
2023-05-03T01:30:47.835Z,0
2023-05-03T01:32:03.994Z,0
2023-05-03T01:33:20.129Z,0
2023-05-03T01:34:35.297Z,0
2023-05-03T01:35:51.441Z,0
2023-05-03T01:37:07.587Z,0
2023-05-03T01:38:23.736Z,0
2023-05-03T01:39:39.886Z,0
2023-05-03T01:40:56.031Z,0
2023-05-03T01:42:12.167Z,0
2023-05-03T01:43:28.305Z,0
2023-05-03T01:44:44.455Z,0
2023-05-03T01:46:00.606Z,0
2023-05-03T01:47:16.756Z,0
2023-05-03T01:48:32.914Z,0
2023-05-03T01:49:49.065Z,0
2023-05-03T01:51:04.228Z,0
2023-05-03T01:52:20.364Z,0
2023-05-03T01:53:36.508Z,0
2023-05-03T01:54:52.658Z,0
2023-05-03T01:56:08.795Z,0
2023-05-03T01:57:24.946Z,0
2023-05-03T01:58:41.097Z,0
2023-05-03T01:59:57.247Z,0
2023-05-03T02:01:13.406Z,0
2023-05-03T02:02:29.555Z,0
2023-05-03T02:03:45.706Z,0
2023-05-03T02:05:01.851Z,0
2023-05-03T02:06:17.994Z,0
2023-05-03T02:07:33.165Z,0
2023-05-03T02:08:49.313Z,0
2023-05-03T02:10:05.480Z,0
2023-05-03T02:11:21.630Z,0
2023-05-03T02:12:37.766Z,0
2023-05-03T02:13:53.912Z,0
2023-05-03T02:15:10.055Z,0
2023-05-03T02:16:26.195Z,0
2023-05-03T02:17:42.340Z,0
2023-05-03T02:18:58.491Z,0
2023-05-03T02:20:14.636Z,0
2023-05-03T02:21:30.796Z,0
2023-05-03T02:22:46.942Z,0
2023-05-03T02:24:02.101Z,0
2023-05-03T02:25:18.236Z,0
2023-05-03T02:26:34.387Z,0
2023-05-03T02:27:50.524Z,0
2023-05-03T02:29:06.668Z,0
2023-05-03T02:30:22.810Z,0
2023-05-03T02:31:38.947Z,0
2023-05-03T02:32:55.099Z,0
2023-05-03T02:34:11.264Z,0
2023-05-03T02:35:27.415Z,0
2023-05-03T02:36:43.558Z,0
2023-05-03T02:37:59.710Z,0
2023-05-03T02:39:15.868Z,0
2023-05-03T02:40:31.029Z,0
2023-05-03T02:41:47.187Z,0
2023-05-03T02:43:03.323Z,0
2023-05-03T02:44:19.466Z,0
2023-05-03T02:45:35.611Z,0
2023-05-03T02:46:51.777Z,0
2023-05-03T02:48:07.933Z,0
2023-05-03T02:49:24.063Z,0
2023-05-03T02:50:40.214Z,0
2023-05-03T02:51:56.379Z,0
2023-05-03T02:53:12.531Z,0
2023-05-03T02:54:28.666Z,0
2023-05-03T02:55:44.831Z,0
2023-05-03T02:56:59.993Z,0
2023-05-03T02:58:16.143Z,0
2023-05-03T02:59:32.296Z,0
2023-05-03T03:00:48.452Z,0
2023-05-03T03:02:04.619Z,0
2023-05-03T03:03:20.773Z,0
2023-05-03T03:04:36.933Z,0
2023-05-03T03:05:53.113Z,0
2023-05-03T03:07:09.263Z,0
2023-05-03T03:08:25.413Z,0
2023-05-03T03:09:41.586Z,0
2023-05-03T03:10:57.751Z,0
2023-05-03T03:12:13.909Z,0
2023-05-03T03:13:29.099Z,0
2023-05-03T03:14:45.250Z,0
2023-05-03T03:16:01.412Z,0
2023-05-03T03:17:17.562Z,0
2023-05-03T03:18:33.724Z,0
2023-05-03T03:19:49.875Z,0
2023-05-03T03:21:06.039Z,0
2023-05-03T03:22:22.186Z,0
2023-05-03T03:23:38.347Z,0
2023-05-03T03:24:54.505Z,0
2023-05-03T03:26:10.664Z,0
2023-05-03T03:27:26.800Z,0
2023-05-03T03:28:42.958Z,0
2023-05-03T03:29:58.113Z,0
2023-05-03T03:31:14.280Z,0
2023-05-03T03:32:30.443Z,0
2023-05-03T03:33:46.603Z,0
2023-05-03T03:35:02.763Z,0
2023-05-03T03:36:18.923Z,0
2023-05-03T03:37:35.073Z,0
2023-05-03T03:38:51.239Z,0
2023-05-03T03:40:07.411Z,0
2023-05-03T03:41:23.569Z,0
2023-05-03T03:42:39.720Z,4
2023-05-03T03:43:55.891Z,4
2023-05-03T03:45:12.042Z,0
2023-05-03T03:46:27.211Z,4
2023-05-03T03:47:43.384Z,4
2023-05-03T03:48:59.541Z,4
2023-05-03T03:50:15.699Z,4
2023-05-03T03:51:31.859Z,4
2023-05-03T03:52:48.021Z,8
2023-05-03T03:54:04.186Z,8
2023-05-03T03:55:19.357Z,8
2023-05-03T03:56:35.517Z,12
2023-05-03T03:57:51.693Z,12
2023-05-03T03:59:07.849Z,16
2023-05-03T04:00:24.015Z,16
2023-05-03T04:01:40.181Z,16
2023-05-03T04:02:56.334Z,20
2023-05-03T04:04:12.482Z,24
2023-05-03T04:05:28.647Z,24
2023-05-03T04:06:44.821Z,28
2023-05-03T04:08:00.991Z,32
2023-05-03T04:09:17.142Z,36
2023-05-03T04:10:33.313Z,40
2023-05-03T04:11:49.462Z,44
2023-05-03T04:13:05.622Z,48
2023-05-03T04:14:20.794Z,52
2023-05-03T04:15:36.971Z,56
2023-05-03T04:16:53.135Z,60
2023-05-03T04:18:09.306Z,64
2023-05-03T04:19:25.472Z,68
2023-05-03T04:20:41.644Z,72
2023-05-03T04:21:57.801Z,80
2023-05-03T04:23:13.953Z,80
2023-05-03T04:24:30.133Z,84
2023-05-03T04:25:46.290Z,88
2023-05-03T04:27:02.465Z,96
2023-05-03T04:28:18.626Z,104
2023-05-03T04:29:34.792Z,112
2023-05-03T04:30:49.968Z,120
2023-05-03T04:32:06.134Z,124
2023-05-03T04:33:22.291Z,128
2023-05-03T04:34:38.462Z,136
2023-05-03T04:35:54.613Z,140
2023-05-03T04:37:10.779Z,140
2023-05-03T04:38:26.967Z,144
2023-05-03T04:39:43.115Z,148
2023-05-03T04:40:59.000Z,152
2023-05-03T04:42:15.438Z,152
2023-05-03T04:43:31.610Z,160
2023-05-03T04:44:47.757Z,164
2023-05-03T04:46:03.927Z,168
2023-05-03T04:47:20.094Z,172
2023-05-03T04:48:35.271Z,180
2023-05-03T04:49:51.425Z,184
2023-05-03T04:51:07.582Z,188
2023-05-03T04:52:23.747Z,192
2023-05-03T04:53:39.905Z,196
2023-05-03T04:54:56.084Z,200
2023-05-03T04:56:12.250Z,204
2023-05-03T04:57:28.421Z,208
2023-05-03T04:58:44.579Z,208
2023-05-03T05:00:00.750Z,212
2023-05-03T05:01:16.916Z,216
2023-05-03T05:02:33.082Z,220
2023-05-03T05:03:49.247Z,224
2023-05-03T05:05:05.418Z,228
2023-05-03T05:06:20.587Z,228
2023-05-03T05:07:36.766Z,228
2023-05-03T05:08:52.916Z,236
2023-05-03T05:10:09.103Z,240
2023-05-03T05:11:25.267Z,240
2023-05-03T05:12:41.425Z,244
2023-05-03T05:13:57.597Z,244
2023-05-03T05:15:13.000Z,248
2023-05-03T05:16:29.930Z,252
2023-05-03T05:17:46.086Z,252
2023-05-03T05:19:02.258Z,256
2023-05-03T05:20:18.420Z,260
2023-05-03T05:21:34.582Z,260
2023-05-03T05:22:50.738Z,264
2023-05-03T05:24:05.922Z,264
2023-05-03T05:25:22.064Z,268
2023-05-03T05:26:38.229Z,268
2023-05-03T05:27:54.388Z,268
2023-05-03T05:29:10.569Z,272
2023-05-03T05:30:26.712Z,272
2023-05-03T05:31:42.882Z,276
2023-05-03T05:32:59.046Z,276
2023-05-03T05:34:15.211Z,280
2023-05-03T05:35:31.362Z,284
2023-05-03T05:36:47.528Z,284
2023-05-03T05:38:03.681Z,284
2023-05-03T05:39:19.837Z,288
2023-05-03T05:40:35.013Z,284
2023-05-03T05:41:51.178Z,288
2023-05-03T05:43:07.339Z,288
2023-05-03T05:44:23.501Z,292
2023-05-03T05:45:39.674Z,292
2023-05-03T05:46:55.830Z,292
2023-05-03T05:48:11.980Z,296
2023-05-03T05:49:28.145Z,300
2023-05-03T05:50:44.303Z,300
2023-05-03T05:52:00.448Z,304
2023-05-03T05:53:16.620Z,304
2023-05-03T05:54:32.781Z,304
2023-05-03T05:55:48.940Z,308
2023-05-03T05:57:04.112Z,308
2023-05-03T05:58:20.263Z,312
2023-05-03T05:59:36.428Z,312
2023-05-03T06:00:52.584Z,312
2023-05-03T06:02:08.742Z,316
2023-05-03T06:03:24.888Z,316
2023-05-03T06:04:41.058Z,316
2023-05-03T06:05:57.201Z,324
2023-05-03T06:07:13.371Z,324
2023-05-03T06:08:29.531Z,328
2023-05-03T06:09:45.690Z,332
2023-05-03T06:11:01.841Z,332
2023-05-03T06:12:17.998Z,332
2023-05-03T06:13:33.167Z,336
2023-05-03T06:14:49.335Z,336
2023-05-03T06:16:05.483Z,336
2023-05-03T06:17:21.647Z,336
2023-05-03T06:18:37.806Z,340
2023-05-03T06:19:53.971Z,340
2023-05-03T06:21:10.136Z,344
2023-05-03T06:22:26.293Z,348
2023-05-03T06:23:42.460Z,348
2023-05-03T06:24:58.610Z,348
2023-05-03T06:26:14.774Z,332
2023-05-03T06:27:30.926Z,344
2023-05-03T06:28:47.091Z,344
2023-05-03T06:30:02.266Z,344
2023-05-03T06:31:18.409Z,344
2023-05-03T06:32:34.581Z,344
2023-05-03T06:33:50.739Z,348
2023-05-03T06:35:06.897Z,344
2023-05-03T06:36:23.047Z,352
2023-05-03T06:37:39.213Z,348
2023-05-03T06:38:55.377Z,352
2023-05-03T06:40:11.541Z,360
2023-05-03T06:41:27.693Z,364
2023-05-03T06:42:43.865Z,352
2023-05-03T06:44:00.016Z,352
2023-05-03T06:45:16.180Z,360
2023-05-03T06:46:31.350Z,352
2023-05-03T06:47:47.529Z,360
2023-05-03T06:49:03.681Z,360
2023-05-03T06:50:19.845Z,360
2023-05-03T06:51:36.005Z,364
2023-05-03T06:52:52.161Z,364
2023-05-03T06:54:08.325Z,364
2023-05-03T06:55:24.483Z,364
2023-05-03T06:56:40.649Z,360
2023-05-03T06:57:56.817Z,360
2023-05-03T06:59:12.973Z,364
2023-05-03T07:00:29.115Z,364
2023-05-03T07:01:45.294Z,364
2023-05-03T07:03:01.451Z,364
2023-05-03T07:04:16.622Z,368
2023-05-03T07:05:32.779Z,368
2023-05-03T07:06:48.937Z,364
2023-05-03T07:08:05.096Z,368
2023-05-03T07:09:21.260Z,368
2023-05-03T07:10:37.419Z,368
2023-05-03T07:11:53.574Z,372
2023-05-03T07:13:09.740Z,368
2023-05-03T07:14:25.898Z,364
2023-05-03T07:15:42.062Z,372
2023-05-03T07:16:58.221Z,372
2023-05-03T07:18:14.380Z,376
2023-05-03T07:19:30.545Z,376
2023-05-03T07:20:46.710Z,372
2023-05-03T07:22:01.891Z,364
2023-05-03T07:23:18.051Z,376
2023-05-03T07:24:34.208Z,380
2023-05-03T07:25:50.366Z,380
2023-05-03T07:27:06.537Z,380
2023-05-03T07:28:22.692Z,384
2023-05-03T07:29:38.846Z,388
2023-05-03T07:30:54.997Z,388
2023-05-03T07:32:11.141Z,392
2023-05-03T07:33:27.284Z,388
2023-05-03T07:34:43.443Z,392
2023-05-03T07:35:59.615Z,388
2023-05-03T07:37:15.751Z,388
2023-05-03T07:38:31.923Z,392
2023-05-03T07:39:47.078Z,396
2023-05-03T07:41:03.250Z,396
2023-05-03T07:42:19.409Z,392
2023-05-03T07:43:35.569Z,400
2023-05-03T07:44:51.731Z,396
2023-05-03T07:46:07.888Z,396
2023-05-03T07:47:24.047Z,400
2023-05-03T07:48:40.186Z,400
2023-05-03T07:49:56.346Z,404
2023-05-03T07:51:12.520Z,408
2023-05-03T07:52:28.658Z,404
2023-05-03T07:53:44.836Z,404
2023-05-03T07:55:00.990Z,408
2023-05-03T07:56:17.146Z,408
2023-05-03T07:57:32.307Z,408
2023-05-03T07:58:48.471Z,412
2023-05-03T08:00:04.644Z,412
2023-05-03T08:01:20.797Z,412
2023-05-03T08:02:36.944Z,420
2023-05-03T08:03:53.116Z,424
2023-05-03T08:05:09.262Z,424
2023-05-03T08:06:25.425Z,424
2023-05-03T08:07:41.569Z,424
2023-05-03T08:08:57.721Z,424
2023-05-03T08:10:12.889Z,428
2023-05-03T08:11:29.047Z,432
2023-05-03T08:12:45.199Z,436
2023-05-03T08:14:01.359Z,444
2023-05-03T08:15:17.515Z,440
2023-05-03T08:16:33.673Z,444
2023-05-03T08:17:49.836Z,444
2023-05-03T08:19:05.995Z,448
2023-05-03T08:20:22.150Z,452
2023-05-03T08:21:38.297Z,452
2023-05-03T08:22:54.447Z,452
2023-05-03T08:24:10.618Z,456
2023-05-03T08:25:26.785Z,460
2023-05-03T08:26:41.939Z,464
2023-05-03T08:27:58.096Z,472
2023-05-03T08:29:14.270Z,460
2023-05-03T08:30:30.420Z,476
2023-05-03T08:31:46.571Z,488
2023-05-03T08:33:02.735Z,496
2023-05-03T08:34:18.886Z,540
2023-05-03T08:35:35.044Z,532
2023-05-03T08:36:51.203Z,500
2023-05-03T08:38:07.352Z,528
2023-05-03T08:39:23.505Z,592
2023-05-03T08:40:39.666Z,548
2023-05-03T08:41:55.813Z,520
2023-05-03T08:43:10.984Z,524
2023-05-03T08:44:27.140Z,516
2023-05-03T08:45:43.305Z,512
2023-05-03T08:46:59.457Z,528
2023-05-03T08:48:15.605Z,536
2023-05-03T08:49:31.758Z,564
2023-05-03T08:50:47.915Z,600
2023-05-03T08:52:04.072Z,588
2023-05-03T08:53:20.210Z,556
2023-05-03T08:54:36.369Z,564
2023-05-03T08:55:52.532Z,560
2023-05-03T08:57:08.676Z,556
2023-05-03T08:58:24.834Z,556
2023-05-03T08:59:40.012Z,552
2023-05-03T09:00:56.167Z,496
2023-05-03T09:02:12.338Z,512
2023-05-03T09:03:28.489Z,576
2023-05-03T09:04:44.647Z,588
2023-05-03T09:06:00.806Z,612
2023-05-03T09:07:16.964Z,640
2023-05-03T09:08:33.108Z,608
2023-05-03T09:09:49.273Z,592
2023-05-03T09:11:05.416Z,592
2023-05-03T09:12:21.559Z,596
2023-05-03T09:13:37.718Z,604
2023-05-03T09:14:53.877Z,612
2023-05-03T09:16:09.029Z,616
2023-05-03T09:17:25.179Z,608
2023-05-03T09:18:41.340Z,620
2023-05-03T09:19:57.475Z,620
2023-05-03T09:21:13.640Z,628
2023-05-03T09:22:29.771Z,628
2023-05-03T09:23:45.922Z,628
2023-05-03T09:25:02.066Z,636
2023-05-03T09:26:18.216Z,636
2023-05-03T09:27:34.371Z,644
2023-05-03T09:28:50.512Z,648
2023-05-03T09:30:06.669Z,644
2023-05-03T09:31:22.813Z,648
2023-05-03T09:32:37.975Z,656
2023-05-03T09:33:54.101Z,644
2023-05-03T09:35:10.257Z,652
2023-05-03T09:36:26.406Z,664
2023-05-03T09:37:42.537Z,652
2023-05-03T09:38:58.686Z,656
2023-05-03T09:40:14.844Z,676
2023-05-03T09:41:30.995Z,676
2023-05-03T09:42:47.142Z,684
2023-05-03T09:44:03.267Z,712
2023-05-03T09:45:19.000Z,728
2023-05-03T09:46:35.582Z,728
2023-05-03T09:47:51.720Z,752
2023-05-03T09:49:06.875Z,784
2023-05-03T09:50:23.019Z,784
2023-05-03T09:51:39.166Z,772
2023-05-03T09:52:55.328Z,784
2023-05-03T09:54:11.486Z,804
2023-05-03T09:55:27.630Z,788
2023-05-03T09:56:43.780Z,772
2023-05-03T09:57:59.911Z,796
2023-05-03T09:59:16.054Z,796
2023-05-03T10:00:32.205Z,720
2023-05-03T10:01:48.363Z,780
2023-05-03T10:03:04.508Z,828
2023-05-03T10:04:20.651Z,840
2023-05-03T10:05:35.819Z,832
2023-05-03T10:06:51.949Z,832
2023-05-03T10:08:08.102Z,876
2023-05-03T10:09:24.252Z,876
2023-05-03T10:10:40.405Z,864
2023-05-03T10:11:56.546Z,880
2023-05-03T10:13:12.689Z,912
2023-05-03T10:14:28.849Z,920
2023-05-03T10:15:44.985Z,916
2023-05-03T10:17:01.140Z,936
2023-05-03T10:18:17.278Z,924
2023-05-03T10:19:33.436Z,944
2023-05-03T10:20:49.580Z,956
2023-05-03T10:22:04.738Z,972
2023-05-03T10:23:20.877Z,988
2023-05-03T10:24:37.008Z,1008
2023-05-03T10:25:53.163Z,1004
2023-05-03T10:27:09.295Z,1004
2023-05-03T10:28:25.446Z,1016
2023-05-03T10:29:41.576Z,1032
2023-05-03T10:30:57.727Z,1060
2023-05-03T10:32:13.864Z,1060
2023-05-03T10:33:30.017Z,1048
2023-05-03T10:34:46.143Z,1064
2023-05-03T10:36:02.289Z,1080
2023-05-03T10:37:18.432Z,1076
2023-05-03T10:38:33.593Z,1076
2023-05-03T10:39:49.743Z,1068
2023-05-03T10:41:05.901Z,1048
2023-05-03T10:42:22.033Z,1048
2023-05-03T10:43:38.182Z,1080
2023-05-03T10:44:54.319Z,1116
2023-05-03T10:46:10.445Z,1116
2023-05-03T10:47:26.607Z,1076
2023-05-03T10:48:42.750Z,1108
2023-05-03T10:49:58.887Z,1160
2023-05-03T10:51:15.030Z,1172
2023-05-03T10:52:31.162Z,1184
2023-05-03T10:53:47.319Z,1208
2023-05-03T10:55:02.465Z,1224
2023-05-03T10:56:18.609Z,1240
2023-05-03T10:57:34.733Z,1244
2023-05-03T10:58:50.869Z,1232
2023-05-03T11:00:07.008Z,1240
2023-05-03T11:01:23.163Z,1256
2023-05-03T11:02:39.301Z,4188
2023-05-03T11:03:55.437Z,5512
2023-05-03T11:05:11.575Z,1628
2023-05-03T11:06:27.710Z,1684
2023-05-03T11:07:43.861Z,1596
2023-05-03T11:08:59.998Z,1404
2023-05-03T11:10:16.122Z,1400
2023-05-03T11:11:31.297Z,1400
2023-05-03T11:12:47.426Z,1420
2023-05-03T11:14:03.556Z,1436
2023-05-03T11:15:19.693Z,1464
2023-05-03T11:16:35.830Z,1572
2023-05-03T11:17:51.983Z,1648
2023-05-03T11:19:08.105Z,1648
2023-05-03T11:20:24.247Z,1588
2023-05-03T11:21:40.391Z,1412
2023-05-03T11:22:56.528Z,1404
2023-05-03T11:24:12.663Z,1484
2023-05-03T11:25:28.794Z,1516
2023-05-03T11:26:44.933Z,1576
2023-05-03T11:28:00.066Z,1656
2023-05-03T11:29:16.201Z,1756
2023-05-03T11:30:32.333Z,1816
2023-05-03T11:31:48.481Z,1812
2023-05-03T11:33:04.608Z,1804
2023-05-03T11:34:20.741Z,1796
2023-05-03T11:35:36.877Z,1748
2023-05-03T11:36:53.022Z,1692
2023-05-03T11:38:09.000Z,1700
2023-05-03T11:39:25.273Z,1704
2023-05-03T11:40:41.409Z,1788
2023-05-03T11:41:57.533Z,1972
2023-05-03T11:43:13.670Z,2576
2023-05-03T11:44:28.810Z,2136
2023-05-03T11:45:44.949Z,1876
2023-05-03T11:47:01.086Z,1896
2023-05-03T11:48:17.207Z,1876
2023-05-03T11:49:33.351Z,1856
2023-05-03T11:50:49.467Z,1836
2023-05-03T11:52:05.599Z,1856
2023-05-03T11:53:21.747Z,1964
2023-05-03T11:54:37.869Z,1984
2023-05-03T11:55:54.020Z,2012
2023-05-03T11:57:10.136Z,2028
2023-05-03T11:58:26.282Z,1996
2023-05-03T11:59:42.409Z,1956
2023-05-03T12:00:57.557Z,1904
2023-05-03T12:02:13.689Z,1896
2023-05-03T12:03:29.810Z,1916
2023-05-03T12:04:45.945Z,1912
2023-05-03T12:06:02.068Z,1884
2023-05-03T12:07:18.198Z,1836
2023-05-03T12:08:34.320Z,1840
2023-05-03T12:09:50.460Z,1876
2023-05-03T12:11:06.587Z,1904
2023-05-03T12:12:22.709Z,1968
2023-05-03T12:13:38.853Z,2008
2023-05-03T12:14:54.975Z,2024
2023-05-03T12:16:11.099Z,2048
2023-05-03T12:17:26.227Z,2064
2023-05-03T12:18:42.362Z,2064
2023-05-03T12:19:58.486Z,2060
2023-05-03T12:21:14.616Z,2064
2023-05-03T12:22:30.738Z,2056
2023-05-03T12:23:46.867Z,2036
2023-05-03T12:25:02.015Z,2092
2023-05-03T12:26:18.137Z,2092
2023-05-03T12:27:34.276Z,2072
2023-05-03T12:28:50.411Z,2136
2023-05-03T12:30:06.527Z,2116
2023-05-03T12:31:22.656Z,2048
2023-05-03T12:32:38.773Z,2120
2023-05-03T12:33:54.894Z,2304
2023-05-03T12:35:11.017Z,2392
2023-05-03T12:36:27.139Z,2540
2023-05-03T12:37:43.270Z,2684
2023-05-03T12:38:59.384Z,2800
2023-05-03T12:40:15.501Z,2876
2023-05-03T12:41:30.649Z,2868
2023-05-03T12:42:46.764Z,2776
2023-05-03T12:44:02.894Z,2720
2023-05-03T12:45:19.017Z,2632
2023-05-03T12:46:35.118Z,2604
2023-05-03T12:47:51.233Z,2664
2023-05-03T12:49:07.348Z,2708
2023-05-03T12:50:23.470Z,2648
2023-05-03T12:51:39.587Z,2668
2023-05-03T12:52:55.690Z,2728
2023-05-03T12:54:11.810Z,2724
2023-05-03T12:55:27.927Z,2672
2023-05-03T12:56:44.027Z,2640
2023-05-03T12:57:59.170Z,2684
2023-05-03T12:59:15.291Z,2716
2023-05-03T13:00:31.399Z,2712
2023-05-03T13:01:47.515Z,2612
2023-05-03T13:03:03.637Z,2428
2023-05-03T13:04:19.753Z,2316
2023-05-03T13:05:35.868Z,2240
2023-05-03T13:06:51.984Z,2208
2023-05-03T13:08:08.106Z,2220
2023-05-03T13:09:24.208Z,2224
2023-05-03T13:10:40.330Z,2204
2023-05-03T13:11:56.427Z,2192
2023-05-03T13:13:12.540Z,2192
2023-05-03T13:14:27.670Z,2216
2023-05-03T13:15:43.783Z,2280
2023-05-03T13:16:59.899Z,2324
2023-05-03T13:18:16.005Z,2380
2023-05-03T13:19:32.132Z,2420
2023-05-03T13:20:48.231Z,2444
2023-05-03T13:22:04.347Z,2372
2023-05-03T13:23:20.465Z,2360
2023-05-03T13:24:36.584Z,2344
2023-05-03T13:25:52.693Z,2340
2023-05-03T13:27:08.822Z,2288
2023-05-03T13:28:24.931Z,2288
2023-05-03T13:29:41.047Z,2316
2023-05-03T13:30:56.173Z,2408
2023-05-03T13:32:12.291Z,2460
2023-05-03T13:33:28.392Z,2496
2023-05-03T13:34:44.499Z,2532
2023-05-03T13:36:00.614Z,2528
2023-05-03T13:37:16.718Z,2516
2023-05-03T13:38:32.832Z,2508
2023-05-03T13:39:48.940Z,2552
2023-05-03T13:41:05.053Z,2496
2023-05-03T13:42:21.150Z,2668
2023-05-03T13:43:37.244Z,5368
2023-05-03T13:44:53.359Z,18124
2023-05-03T13:46:09.454Z,29216
2023-05-03T13:47:25.556Z,11776
2023-05-03T13:48:40.668Z,2968
2023-05-03T13:49:56.761Z,8020
2023-05-03T13:51:12.842Z,10964
2023-05-03T13:52:28.932Z,3940
2023-05-03T13:53:45.038Z,2416
2023-05-03T13:55:01.120Z,3264
2023-05-03T13:56:17.217Z,4664
2023-05-03T13:57:33.299Z,2152
2023-05-03T13:58:49.381Z,2148
2023-05-03T14:00:05.482Z,2064
2023-05-03T14:01:21.570Z,2048
2023-05-03T14:02:37.651Z,2056
2023-05-03T14:03:53.754Z,2064
2023-05-03T14:05:09.832Z,2028
2023-05-03T14:06:24.956Z,2020
2023-05-03T14:07:41.039Z,2004
2023-05-03T14:08:57.126Z,1992
2023-05-03T14:10:13.213Z,1976
2023-05-03T14:11:29.310Z,2044
2023-05-03T14:12:45.396Z,1972
2023-05-03T14:14:01.480Z,1996
2023-05-03T14:15:17.584Z,2024
2023-05-03T14:16:33.670Z,2104
2023-05-03T14:17:49.754Z,3144
2023-05-03T14:19:05.857Z,2788
2023-05-03T14:20:21.954Z,2552
2023-05-03T14:21:38.050Z,4180
2023-05-03T14:22:54.144Z,12144
2023-05-03T14:24:09.246Z,10180
2023-05-03T14:25:25.344Z,4088
2023-05-03T14:26:41.429Z,2932
2023-05-03T14:27:57.518Z,2856
2023-05-03T14:29:13.612Z,5412
2023-05-03T14:30:29.707Z,12096
2023-05-03T14:31:45.787Z,8704
2023-05-03T14:33:01.889Z,3544
2023-05-03T14:34:17.965Z,1800
2023-05-03T14:35:34.071Z,1756
2023-05-03T14:36:50.151Z,1716
2023-05-03T14:38:06.238Z,1680
2023-05-03T14:39:22.333Z,1692
2023-05-03T14:40:38.433Z,1696
2023-05-03T14:43:09.647Z,1700
2023-05-03T14:44:25.735Z,1704
2023-05-03T14:45:41.836Z,1688
2023-05-03T14:46:57.931Z,1664
2023-05-03T14:48:14.025Z,1664
2023-05-03T14:49:30.105Z,1680
2023-05-03T14:50:46.212Z,1712
2023-05-03T14:52:02.310Z,1732
2023-05-03T14:53:18.401Z,1732
2023-05-03T14:54:34.495Z,1736
2023-05-03T14:55:50.585Z,1712
2023-05-03T14:57:06.692Z,1768
2023-05-03T14:58:22.773Z,1784
2023-05-03T14:59:37.886Z,1716
2023-05-03T15:00:53.990Z,1688
2023-05-03T15:02:10.088Z,1660
2023-05-03T15:03:26.178Z,1648
2023-05-03T15:04:42.278Z,1648
2023-05-03T15:05:58.357Z,1656
2023-05-03T15:07:14.460Z,2068
2023-05-03T15:08:30.561Z,7668
2023-05-03T15:09:46.655Z,6380
2023-05-03T15:11:02.762Z,1688
2023-05-03T15:12:18.867Z,1600
2023-05-03T15:13:34.959Z,1552
2023-05-03T15:14:51.058Z,1560
2023-05-03T15:16:07.133Z,1576
2023-05-03T15:17:22.267Z,1584
2023-05-03T15:18:38.355Z,1572
2023-05-03T15:19:54.000Z,1572
2023-05-03T15:21:10.543Z,1560
2023-05-03T15:22:26.653Z,1560
2023-05-03T15:23:42.733Z,1592
2023-05-03T15:24:58.839Z,1628
2023-05-03T15:26:14.941Z,1644
2023-05-03T15:27:31.038Z,1700
2023-05-03T15:28:47.124Z,1808
2023-05-03T15:30:03.204Z,1880
2023-05-03T15:31:19.306Z,2036
2023-05-03T15:32:35.401Z,2180
2023-05-03T15:33:51.501Z,2280
2023-05-03T15:35:06.621Z,2396
2023-05-03T15:36:22.715Z,2532
2023-05-03T15:37:38.793Z,2704
2023-05-03T15:38:54.890Z,3128
2023-05-03T15:40:10.977Z,5412
2023-05-03T15:41:27.056Z,5476
2023-05-03T15:42:43.139Z,8204
2023-05-03T15:43:59.231Z,5972
2023-05-03T15:45:15.334Z,13064
2023-05-03T15:46:31.416Z,16920
2023-05-03T15:47:47.501Z,9792
2023-05-03T15:49:03.588Z,19840
2023-05-03T15:50:19.676Z,31712
2023-05-03T15:51:35.780Z,31744
2023-05-03T15:52:50.871Z,14088
2023-05-03T15:54:06.954Z,10172
2023-05-03T15:55:23.028Z,14928
2023-05-03T15:56:39.110Z,14192
2023-05-03T15:57:55.204Z,10932
2023-05-03T15:59:11.283Z,7756
2023-05-03T16:00:27.345Z,3128
2023-05-03T16:01:43.437Z,2696
2023-05-03T16:02:59.513Z,2872
2023-05-03T16:04:15.583Z,8984
2023-05-03T16:05:31.645Z,10688
2023-05-03T16:06:47.736Z,7876
2023-05-03T16:08:03.803Z,7636
2023-05-03T16:09:19.889Z,4856
2023-05-03T16:10:34.996Z,3016
2023-05-03T16:11:51.069Z,2920
2023-05-03T16:13:07.149Z,2780
2023-05-03T16:14:23.244Z,2596
2023-05-03T16:15:39.318Z,2436
2023-05-03T16:16:55.408Z,2348
2023-05-03T16:18:11.491Z,2276
2023-05-03T16:19:27.551Z,2436
2023-05-03T16:20:43.639Z,3232
2023-05-03T16:21:59.718Z,3956
2023-05-03T16:23:15.794Z,4200
2023-05-03T16:24:31.864Z,3844
2023-05-03T16:25:47.966Z,4480
2023-05-03T16:27:04.032Z,4688
2023-05-03T16:28:20.112Z,3276
2023-05-03T16:29:36.185Z,3032
2023-05-03T16:30:52.272Z,2828
2023-05-03T16:32:08.360Z,1828
2023-05-03T16:33:24.447Z,1528
2023-05-03T16:34:39.538Z,1460
2023-05-03T16:35:55.627Z,3480
2023-05-03T16:37:11.714Z,4224
2023-05-03T16:38:27.801Z,3684
2023-05-03T16:39:42.892Z,4260
2023-05-03T16:40:58.986Z,4196
2023-05-03T16:42:15.058Z,4540
2023-05-03T16:43:31.155Z,3796
2023-05-03T16:44:47.220Z,3328
2023-05-03T16:46:03.314Z,2588
2023-05-03T16:47:19.402Z,2584
2023-05-03T16:48:35.468Z,3148
2023-05-03T16:49:51.555Z,1816
2023-05-03T16:51:07.650Z,1204
2023-05-03T16:52:23.726Z,1784
2023-05-03T16:53:39.810Z,1612
2023-05-03T16:54:55.882Z,1256
2023-05-03T16:56:11.956Z,1092
2023-05-03T16:57:28.044Z,1004
2023-05-03T16:58:44.124Z,972
2023-05-03T17:00:00.209Z,1036
2023-05-03T17:01:16.285Z,948
2023-05-03T17:02:32.351Z,936
2023-05-03T17:03:48.444Z,912
2023-05-03T17:05:04.526Z,884
2023-05-03T17:06:20.609Z,860
2023-05-03T17:07:36.700Z,828
2023-05-03T17:08:52.765Z,780
2023-05-03T17:10:07.871Z,772
2023-05-03T17:11:23.966Z,764
2023-05-03T17:12:40.049Z,744
2023-05-03T17:13:56.118Z,732
2023-05-03T17:15:12.206Z,656
2023-05-03T17:16:28.287Z,660
2023-05-03T17:17:44.374Z,660
2023-05-03T17:19:00.454Z,636
2023-05-03T17:20:16.537Z,652
2023-05-03T17:21:32.615Z,652
2023-05-03T17:22:48.702Z,620
2023-05-03T17:24:04.782Z,616
2023-05-03T17:25:20.869Z,604
2023-05-03T17:26:36.964Z,584
2023-05-03T17:27:52.072Z,588
2023-05-03T17:29:08.157Z,584
2023-05-03T17:30:24.238Z,588
2023-05-03T17:31:40.330Z,592
2023-05-03T17:32:56.417Z,596